Erandio, Spain
Current Conditions -  °F | °C
As of 8:00 AM on Thursday 23 Oct 2014 (Local Time) from LEBB Reporting Station
Clear Clear  
Wind Chill: 48°   Ceiling: Unl
Heat Index: 48°   Visibility: 6mi
Dew Point: 45°   Wind: 1mph
Humidity: 87%   Direction: NA
Pressure: 30.3"   Gusts: NA
Location:  43.31°N, 2.95°W
Report Text: LEBB 230600Z VRB01KT CAVOK 09/07 Q1026 NOSIG
Loading
Personal Weather Stations






























Interactive Weather Map New forecast layout! Learn more

10-Day Weather Forecast

Advertisements
Track Severe Weather on mobile